Главная страница
METAR-TAF:

METAR-TAF

Аэропорты :

Хейдрун, Норвегия

широта: 65-19-30N, долгота: 007-19-36E, высота над уровнем моря: 0 м

Текущие метеонаблюдения

Эта сводка был подготовлена 38 минут назад, в 20:50 UTC
Ветер 25 Узел от западный-юго-западный
Температура 8°C
Влажность 87%
Давление 1031 hPa
Видимость 10 км и более
небольшая облачность на высоте 1500 фута
Отдельные облака на высоте 8500 фута

METAR: ENHE 182050Z 24025KT 9999 FEW015 SCT085 08/06 Q1031 W///S4

Время: 23:28 (21:28 UTC)

Прогноз

Эта сводка был подготовлена 1 час и 28 минут назад, в 20:00 UTC
Прогноз действительный с 18-го 21 UTC до 19-го 06 UTC
Ветер 25 Узел от юго-западный
Видимость 10 км и более
небольшая облачность на высоте 2000 фута

TAF: ENHE 182000Z 1821/1906 23025KT 9999 FEW020

Метеонаблюдения и прогнозы для более 4000 аэропортов (сводки METAR и TAF).

Имеющиеся станции представлены на карте желтыми и красными точками.

Чтобы увидеть название станции, наведите на нее мышь.

Затем щелкните, чтобы увидеть метеонаблюдения и метеопрогнозы.

Управление картой: чтобы увеличить масштаб, щелкните зеленые кнопки с черным крестиком; чтобы уменьшить масштаб, щелкните зеленую кнопку с тире; для просмотра соседних карт щелкайте зеленые стрелки.


METAR-TAF: